Time;durP1;ratioP1;P1;durP2;ratioP2;P2;SDS_P1;SDS_P2;PMS_P1;PMS_P2;Temp;Humidity;BMP_temperature;BMP_pressure;BME280_temperature;BME280_humidity;BME280_pressure;Samples;Min_cycle;Max_cycle;Signal;HPM_P1;HPM_P2
2023/10/01 00:01:37;;;;;;;27.75;10.95;;;10.10;99.90;;;;;;5045973;28;20025;-73
2023/10/01 00:04:04;;;;;;;27.15;10.63;;;10.00;99.90;;;;;;5046425;28;20025;-73
2023/10/01 00:06:30;;;;;;;32.78;10.18;;;10.00;99.90;;;;;;5039213;28;20048;-73
2023/10/01 00:08:57;;;;;;;28.15;10.30;;;9.90;99.90;;;;;;5046064;28;20033;-73
2023/10/01 00:11:24;;;;;;;23.40;9.70;;;9.80;99.90;;;;;;5048146;28;20021;-73
2023/10/01 00:13:49;;;;;;;30.30;10.82;;;9.80;99.90;;;;;;5047341;28;20036;-73
2023/10/01 00:16:15;;;;;;;26.50;10.43;;;9.70;99.90;;;;;;5046579;28;20041;-73
2023/10/01 00:18:41;;;;;;;34.05;10.65;;;9.70;99.90;;;;;;5045451;28;20052;-73
2023/10/01 00:21:07;;;;;;;28.23;10.35;;;9.70;99.90;;;;;;5047942;28;20037;-73
2023/10/01 00:23:33;;;;;;;29.05;11.23;;;9.70;99.90;;;;;;5047330;28;20025;-73
2023/10/01 00:25:59;;;;;;;29.65;11.40;;;9.60;99.90;;;;;;5047396;28;20729;-73
2023/10/01 00:28:24;;;;;;;27.95;10.32;;;9.50;99.90;;;;;;5047976;28;20552;-73
2023/10/01 00:30:50;;;;;;;28.15;10.40;;;9.50;99.90;;;;;;5046907;28;20032;-73
2023/10/01 00:33:16;;;;;;;23.77;10.23;;;9.50;99.90;;;;;;5047932;28;20033;-73
2023/10/01 00:35:42;;;;;;;26.52;10.40;;;9.50;99.90;;;;;;5047184;28;20377;-73
2023/10/01 00:38:08;;;;;;;34.05;11.02;;;9.60;99.90;;;;;;5047331;28;20049;-73
2023/10/01 00:40:35;;;;;;;29.75;10.60;;;9.60;99.90;;;;;;5047547;28;20175;-73
2023/10/01 00:43:02;;;;;;;30.88;11.05;;;9.60;99.90;;;;;;5047639;28;20102;-73
2023/10/01 00:45:28;;;;;;;26.17;11.13;;;9.70;99.90;;;;;;5047234;28;20374;-73
2023/10/01 00:47:55;;;;;;;26.70;10.50;;;9.70;99.90;;;;;;5045531;28;20035;-73
2023/10/01 00:50:22;;;;;;;27.17;10.77;;;9.60;99.90;;;;;;5049905;28;20035;-73
2023/10/01 00:52:53;;;;;;;31.92;11.27;;;9.40;99.90;;;;;;5050958;28;20444;-73
2023/10/01 00:55:20;;;;;;;23.70;9.82;;;9.40;99.90;;;;;;5051029;28;20040;-73
2023/10/01 00:57:46;;;;;;;26.15;10.10;;;9.30;99.90;;;;;;5050480;28;20028;-73
2023/10/01 01:00:19;;;;;;;29.38;9.35;;;9.30;99.90;;;;;;5051033;28;20029;-73
2023/10/01 01:02:58;;;;;;;27.67;10.57;;;9.20;99.90;;;;;;5049093;28;20028;-73
2023/10/01 01:05:25;;;;;;;28.33;9.70;;;9.20;99.90;;;;;;5049448;28;20033;-73
2023/10/01 01:07:51;;;;;;;26.23;11.13;;;9.10;99.90;;;;;;5050241;28;20029;-73
2023/10/01 01:10:19;;;;;;;28.35;11.13;;;9.10;99.90;;;;;;5051131;28;20029;-73
2023/10/01 01:12:45;;;;;;;28.45;10.63;;;9.10;99.90;;;;;;5050355;28;20503;-73
2023/10/01 01:15:14;;;;;;;27.08;10.52;;;9.10;99.90;;;;;;5049383;28;20036;-73
2023/10/01 01:17:41;;;;;;;26.80;10.35;;;9.10;99.90;;;;;;5046423;28;20370;-73
2023/10/01 01:20:09;;;;;;;25.60;10.57;;;9.20;99.90;;;;;;5050843;28;20055;-73
2023/10/01 01:22:37;;;;;;;26.25;10.15;;;9.20;99.90;;;;;;5049287;28;20040;-73
2023/10/01 01:25:20;;;;;;;26.50;10.55;;;9.20;99.90;;;;;;5049007;28;20033;-73
2023/10/01 01:27:50;;;;;;;30.98;11.00;;;9.20;99.90;;;;;;5049779;28;20059;-73
2023/10/01 01:30:19;;;;;;;;;;;9.10;99.90;;;;;;5030044;28;20091;-73
2023/10/01 01:32:47;;;;;;;30.55;11.68;;;9.10;99.90;;;;;;5045265;28;19909;-73
2023/10/01 01:35:13;;;;;;;30.42;11.23;;;9.10;99.90;;;;;;5030717;28;20022;-73
2023/10/01 01:37:48;;;;;;;36.13;12.05;;;9.10;99.90;;;;;;5031734;28;20581;-73
2023/10/01 01:40:24;;;;;;;33.78;12.27;;;9.10;99.90;;;;;;5050553;28;20533;-73
2023/10/01 01:42:56;;;;;;;32.70;12.55;;;9.10;99.90;;;;;;5049497;28;20033;-73
2023/10/01 01:45:26;;;;;;;37.40;13.80;;;9.00;99.90;;;;;;5050180;28;20481;-73
2023/10/01 01:47:53;;;;;;;31.88;12.80;;;8.90;99.90;;;;;;5049266;28;20043;-73
2023/10/01 01:50:21;;;;;;;33.60;12.18;;;8.90;99.90;;;;;;5050464;28;20036;-73
2023/10/01 01:52:49;;;;;;;33.63;12.52;;;9.00;99.90;;;;;;5049502;28;20018;-73
2023/10/01 01:55:29;;;;;;;32.38;12.57;;;9.00;99.90;;;;;;5050271;28;20039;-73
2023/10/01 01:58:15;;;;;;;31.83;11.05;;;9.00;99.90;;;;;;5048885;28;20697;-73
2023/10/01 02:01:17;;;;;;;28.83;11.40;;;8.90;99.90;;;;;;5049533;28;20465;-73
2023/10/01 02:03:37;;;;;;;27.83;10.43;;;8.90;99.90;;;;;;5047551;28;20044;-73
2023/10/01 02:06:06;;;;;;;24.30;9.40;;;8.90;99.90;;;;;;5049161;28;20048;-73
2023/10/01 02:08:44;;;;;;;23.17;9.32;;;8.90;99.90;;;;;;5050088;28;20036;-73
2023/10/01 02:11:10;;;;;;;28.33;10.88;;;8.90;99.90;;;;;;5049572;28;20086;-73
2023/10/01 02:13:45;;;;;;;25.52;9.80;;;8.90;99.90;;;;;;5037412;28;20430;-73
2023/10/01 02:18:56;;;;;;;22.77;9.85;;;9.00;99.90;;;;;;5049171;28;20035;-73
2023/10/01 02:21:44;;;;;;;28.58;10.00;;;8.90;99.90;;;;;;5049824;28;20017;-73
2023/10/01 02:24:23;;;;;;;22.65;9.75;;;8.80;99.90;;;;;;5048417;28;20033;-73
2023/10/01 02:26:58;;;;;;;26.88;9.88;;;8.80;99.90;;;;;;5048821;28;20032;-73
2023/10/01 02:29:25;;;;;;;28.27;10.38;;;8.70;99.90;;;;;;5048299;28;20464;-73
2023/10/01 02:31:56;;;;;;;25.88;9.82;;;8.60;99.90;;;;;;5048564;28;20068;-73
2023/10/01 02:34:23;;;;;;;28.77;10.55;;;8.60;99.90;;;;;;5049718;28;20025;-73
2023/10/01 02:36:49;;;;;;;28.10;10.27;;;8.40;99.90;;;;;;5046478;28;20094;-73
2023/10/01 02:39:27;;;;;;;25.42;10.38;;;8.40;99.90;;;;;;5049669;28;20757;-73
2023/10/01 02:44:38;;;;;;;27.25;10.23;;;8.40;99.90;;;;;;5049453;28;20032;-73
2023/10/01 02:47:18;;;;;;;24.80;9.90;;;8.40;99.90;;;;;;5048494;28;20048;-73
2023/10/01 02:49:52;;;;;;;25.98;10.65;;;8.40;99.90;;;;;;5048628;28;20025;-73
2023/10/01 02:52:22;;;;;;;30.88;10.93;;;8.40;99.90;;;;;;5049253;28;20033;-73
2023/10/01 02:54:54;;;;;;;26.30;9.73;;;8.40;99.90;;;;;;5048376;28;20024;-73
2023/10/01 02:57:24;;;;;;;24.67;9.73;;;8.40;99.90;;;;;;5049111;28;20041;-73
2023/10/01 03:02:39;;;;;;;22.30;9.43;;;8.40;99.90;;;;;;5029186;28;20375;-73
2023/10/01 03:05:19;;;;;;;23.08;9.52;;;8.40;99.90;;;;;;5028171;28;20865;-73
2023/10/01 03:07:45;;;;;;;23.05;8.73;;;8.30;99.90;;;;;;5043737;28;20033;-73
2023/10/01 03:10:29;;;;;;;23.42;9.52;;;8.30;99.90;;;;;;5047744;28;20474;-73
2023/10/01 03:12:59;;;;;;;27.67;9.55;;;8.30;99.90;;;;;;5047577;28;20029;-73
2023/10/01 03:15:28;;;;;;;27.42;10.48;;;8.20;99.90;;;;;;5048842;28;20032;-73
2023/10/01 03:17:58;;;;;;;23.95;9.32;;;8.20;99.90;;;;;;5046410;28;20383;-73
2023/10/01 03:23:10;;;;;;;25.48;9.25;;;8.10;99.90;;;;;;5047869;28;20025;-73
2023/10/01 03:31:25;;;;;;;24.67;9.02;;;8.10;99.90;;;;;;5028792;28;20036;-73
2023/10/01 03:33:54;;;;;;;23.90;9.50;;;8.00;99.90;;;;;;5037812;28;20040;-73
2023/10/01 03:36:25;;;;;;;25.75;9.25;;;8.00;99.90;;;;;;5046541;28;20049;-73
2023/10/01 03:38:57;;;;;;;26.85;10.18;;;8.00;99.90;;;;;;5047815;28;20082;-73
2023/10/01 03:41:24;;;;;;;28.88;9.63;;;8.00;99.90;;;;;;5046510;28;20136;-73
2023/10/01 03:43:54;;;;;;;23.23;9.50;;;8.00;99.90;;;;;;5046213;28;20044;-73
2023/10/01 03:46:26;;;;;;;27.85;9.38;;;8.00;99.90;;;;;;5046760;28;20064;-73
2023/10/01 03:48:58;;;;;;;26.83;10.15;;;8.00;99.90;;;;;;5047590;28;20032;-73
2023/10/01 03:54:20;;;;;;;29.17;10.10;;;8.00;99.90;;;;;;5048057;28;20035;-73
2023/10/01 03:56:58;;;;;;;20.17;9.07;;;8.00;99.90;;;;;;5048042;28;20033;-73
2023/10/01 03:59:28;;;;;;;26.63;9.07;;;8.00;99.90;;;;;;5048291;28;20037;-73
2023/10/01 04:02:02;;;;;;;23.95;9.63;;;7.90;99.90;;;;;;5047015;28;20029;-73
2023/10/01 04:04:31;;;;;;;23.83;9.43;;;7.90;99.90;;;;;;5048311;28;20032;-73
2023/10/01 04:06:59;;;;;;;24.40;9.00;;;8.00;99.90;;;;;;5041120;28;20029;-73
2023/10/01 04:09:26;;;;;;;27.77;9.55;;;8.00;99.90;;;;;;5028238;28;20064;-73
2023/10/01 04:12:18;;;;;;;24.92;9.02;;;8.10;99.90;;;;;;5027511;28;20084;-73
2023/10/01 04:14:48;;;;;;;25.17;9.20;;;8.00;99.90;;;;;;5027797;28;20036;-73
2023/10/01 04:17:18;;;;;;;20.65;9.05;;;8.10;99.90;;;;;;5026834;28;20611;-73
2023/10/01 04:20:00;;;;;;;22.20;9.02;;;8.00;99.90;;;;;;5028285;28;20029;-73
2023/10/01 04:22:28;;;;;;;23.67;9.13;;;8.00;99.90;;;;;;5028206;28;20125;-73
2023/10/01 04:25:12;;;;;;;26.48;9.13;;;8.00;99.90;;;;;;5028921;28;20026;-73
2023/10/01 04:27:42;;;;;;;24.48;9.80;;;7.90;99.90;;;;;;5030665;28;20417;-73
2023/10/01 04:30:10;;;;;;;23.35;8.98;;;8.00;99.90;;;;;;5031075;28;20029;-73
2023/10/01 04:32:36;;;;;;;25.85;10.55;;;8.00;99.90;;;;;;5032051;28;20489;-73
2023/10/01 04:35:14;;;;;;;26.52;9.45;;;8.00;99.90;;;;;;5031207;28;20078;-73
2023/10/01 04:37:43;;;;;;;22.67;8.95;;;7.90;99.90;;;;;;5046646;28;20413;-73
2023/10/01 04:42:56;;;;;;;24.45;8.75;;;7.90;99.90;;;;;;5050087;28;20091;-74
2023/10/01 04:45:27;;;;;;;27.73;9.98;;;7.90;99.90;;;;;;5051294;28;20017;-73
2023/10/01 04:47:56;;;;;;;21.05;8.60;;;7.80;99.90;;;;;;5050874;28;20485;-73
2023/10/01 04:50:29;;;;;;;27.33;8.93;;;7.80;99.90;;;;;;5051493;28;20075;-73
2023/10/01 04:52:59;;;;;;;26.30;9.02;;;7.70;99.90;;;;;;5050806;28;20029;-73
2023/10/01 04:55:28;;;;;;;23.70;9.20;;;7.70;99.90;;;;;;5049739;28;20643;-73
2023/10/01 04:57:57;;;;;;;25.80;9.07;;;7.70;99.90;;;;;;5050509;28;20041;-74
2023/10/01 05:00:25;;;;;;;20.80;7.97;;;7.70;99.90;;;;;;5050969;28;20079;-73
2023/10/01 05:02:51;;;;;;;20.40;7.57;;;7.70;99.90;;;;;;5050641;28;20029;-74
2023/10/01 05:05:25;;;;;;;20.10;7.93;;;7.70;99.90;;;;;;5051146;28;20021;-73
2023/10/01 05:07:57;;;;;;;17.80;6.80;;;7.60;99.90;;;;;;5047439;28;20029;-73
2023/10/01 05:10:26;;;;;;;19.88;7.43;;;7.60;99.90;;;;;;5051178;28;20060;-73
2023/10/01 05:12:58;;;;;;;21.38;7.45;;;7.70;99.90;;;;;;5050697;28;20094;-73
2023/10/01 05:15:35;;;;;;;16.75;7.22;;;7.60;99.90;;;;;;5050536;28;20037;-73
2023/10/01 05:18:04;;;;;;;19.55;8.32;;;7.70;99.90;;;;;;5049441;28;20084;-73
2023/10/01 05:20:30;;;;;;;18.75;6.90;;;7.60;99.90;;;;;;5050653;28;20119;-73
2023/10/01 05:22:59;;;;;;;18.63;7.18;;;7.60;99.90;;;;;;5050176;28;20148;-73
2023/10/01 05:25:26;;;;;;;17.77;7.00;;;7.60;99.90;;;;;;5050210;28;20827;-73
2023/10/01 05:27:54;;;;;;;18.85;7.32;;;7.60;99.90;;;;;;5050231;28;20025;-73
2023/10/01 05:30:39;;;;;;;15.43;7.00;;;7.60;99.90;;;;;;5050837;28;20384;-73
2023/10/01 05:33:06;;;;;;;20.63;7.85;;;7.50;99.90;;;;;;5049769;28;20033;-73
2023/10/01 05:35:44;;;;;;;20.77;7.57;;;7.60;99.90;;;;;;5050600;28;20021;-73
2023/10/01 05:38:10;;;;;;;18.42;6.93;;;7.60;99.90;;;;;;5049181;28;20056;-73
2023/10/01 05:40:40;;;;;;;21.73;6.97;;;7.40;99.90;;;;;;5049170;28;20033;-73
2023/10/01 05:43:15;;;;;;;19.88;7.38;;;7.20;99.90;;;;;;5049073;28;20812;-73
2023/10/01 05:45:52;;;;;;;16.60;7.03;;;7.20;99.90;;;;;;5036814;28;20040;-73
2023/10/01 05:48:23;;;;;;;21.63;8.07;;;7.20;99.90;;;;;;5049773;28;20119;-72
2023/10/01 05:50:53;;;;;;;17.23;7.50;;;7.20;99.90;;;;;;5050056;28;20087;-71
2023/10/01 05:53:18;;;;;;;19.92;7.53;;;7.20;99.90;;;;;;5050386;28;20143;-72
2023/10/01 05:55:44;;;;;;;16.80;7.55;;;7.30;99.90;;;;;;5040003;28;20466;-71
2023/10/01 05:58:13;;;;;;;18.98;7.07;;;7.40;99.90;;;;;;5036409;28;20417;-72
2023/10/01 06:00:56;;;;;;;21.83;7.82;;;7.50;99.90;;;;;;5049797;28;20434;-71
2023/10/01 06:03:26;;;;;;;20.70;8.57;;;7.60;99.90;;;;;;5050137;28;20484;-72
2023/10/01 06:06:08;;;;;;;23.63;7.95;;;7.70;99.90;;;;;;5049664;28;20025;-72
2023/10/01 06:08:45;;;;;;;20.75;7.90;;;7.70;99.90;;;;;;5048570;28;20374;-72
2023/10/01 06:11:17;;;;;;;19.58;8.70;;;7.80;99.90;;;;;;5049164;28;20798;-72
2023/10/01 06:13:51;;;;;;;18.77;7.88;;;7.90;99.90;;;;;;5048446;28;20778;-72
2023/10/01 06:16:22;;;;;;;21.13;8.30;;;8.00;99.90;;;;;;5047634;28;20124;-72
2023/10/01 06:18:59;;;;;;;18.52;8.50;;;8.20;99.90;;;;;;5049561;28;20100;-72
2023/10/01 06:21:31;;;;;;;23.10;9.30;;;8.20;99.90;;;;;;5049148;28;20428;-72
2023/10/01 06:23:58;;;;;;;18.10;7.35;;;8.30;99.90;;;;;;5046873;28;20107;-72
2023/10/01 06:26:37;;;;;;;19.42;8.35;;;8.50;99.90;;;;;;5047233;28;20481;-72
2023/10/01 06:29:11;;;;;;;19.92;8.45;;;8.60;99.90;;;;;;5048267;28;20382;-72
2023/10/01 06:31:48;;;;;;;20.08;8.18;;;8.70;99.90;;;;;;5048835;28;20041;-72
2023/10/01 06:34:32;;;;;;;22.10;8.38;;;8.70;99.90;;;;;;5048720;28;20029;-70
2023/10/01 06:36:59;;;;;;;22.80;8.35;;;8.80;99.90;;;;;;5047830;28;20378;-67
2023/10/01 06:39:26;;;;;;;20.85;8.07;;;8.80;99.90;;;;;;5049366;28;20033;-67
2023/10/01 06:42:18;;;;;;;21.92;9.00;;;8.90;99.90;;;;;;5048290;28;20462;-66
2023/10/01 06:44:45;;;;;;;17.90;7.95;;;9.00;99.90;;;;;;5049077;28;20021;-67
2023/10/01 06:47:17;;;;;;;19.60;8.35;;;9.10;99.90;;;;;;5045662;28;20029;-68
2023/10/01 06:52:34;;;;;;;22.85;8.63;;;9.50;99.90;;;;;;5048591;28;20107;-68
2023/10/01 06:55:01;;;;;;;26.25;9.20;;;9.60;99.90;;;;;;5048196;28;20036;-68
2023/10/01 06:57:33;;;;;;;23.25;8.57;;;9.60;99.90;;;;;;5049075;28;20037;-68
2023/10/01 07:00:04;;;;;;;19.85;8.27;;;9.80;99.90;;;;;;5048332;28;20719;-68
2023/10/01 07:02:31;;;;;;;23.48;8.70;;;9.90;99.90;;;;;;5049143;28;20575;-67
2023/10/01 07:04:58;;;;;;;26.30;9.55;;;10.00;99.90;;;;;;5048502;28;20033;-68
2023/10/01 07:07:28;;;;;;;21.60;8.73;;;10.00;99.90;;;;;;5048234;28;20037;-68
2023/10/01 07:10:00;;;;;;;22.70;9.20;;;10.00;99.90;;;;;;5048861;28;20074;-67
2023/10/01 07:12:26;;;;;;;20.13;8.85;;;10.00;99.90;;;;;;5046194;28;20107;-67
2023/10/01 07:14:52;;;;;;;24.00;9.40;;;9.90;99.90;;;;;;5048857;28;20037;-67
2023/10/01 07:17:23;;;;;;;22.75;9.68;;;10.00;99.90;;;;;;5048023;28;20082;-67
2023/10/01 07:19:59;;;;;;;27.15;10.15;;;10.10;99.90;;;;;;5048208;28;20106;-67
2023/10/01 07:22:26;;;;;;;25.20;9.45;;;10.20;99.90;;;;;;5047276;28;20033;-68
2023/10/01 07:24:53;;;;;;;22.92;9.55;;;10.30;99.90;;;;;;5047940;28;20471;-67
2023/10/01 07:27:18;;;;;;;28.65;10.00;;;10.40;99.90;;;;;;5047491;28;20672;-68
2023/10/01 07:29:44;;;;;;;21.63;9.82;;;10.50;99.90;;;;;;5047211;28;20056;-67
2023/10/01 07:32:14;;;;;;;25.05;9.43;;;10.60;99.90;;;;;;5047154;28;20029;-68
2023/10/01 07:34:42;;;;;;;24.15;9.38;;;10.60;99.90;;;;;;5048530;28;20033;-68
2023/10/01 07:37:23;;;;;;;22.40;9.75;;;10.70;99.90;;;;;;5047245;28;20482;-68
2023/10/01 07:39:55;;;;;;;23.60;9.35;;;10.90;99.90;;;;;;5047931;28;20044;-68
2023/10/01 07:42:27;;;;;;;22.73;9.65;;;11.10;99.90;;;;;;5047416;28;20563;-68
2023/10/01 07:44:53;;;;;;;22.00;9.18;;;11.20;99.90;;;;;;5059663;28;20107;-68
2023/10/01 07:47:28;;;;;;;26.13;10.35;;;11.40;99.90;;;;;;5048312;28;20063;-68
2023/10/01 07:50:02;;;;;;;26.52;10.38;;;11.60;99.90;;;;;;5048494;28;20812;-69
2023/10/01 07:52:28;;;;;;;25.85;10.35;;;11.80;99.90;;;;;;5048407;28;20025;-68
2023/10/01 07:54:57;;;;;;;29.02;11.10;;;12.00;99.90;;;;;;5048317;28;20021;-69
2023/10/01 07:57:28;;;;;;;24.83;10.43;;;12.20;99.90;;;;;;5047515;28;20039;-69
2023/10/01 07:59:55;;;;;;;30.60;11.05;;;12.50;99.90;;;;;;5054745;28;20044;-69
2023/10/01 08:02:21;;;;;;;31.05;10.77;;;12.70;99.90;;;;;;5061534;28;20032;-69
2023/10/01 08:04:57;;;;;;;27.83;10.60;;;12.90;99.90;;;;;;5054723;28;20052;-69
2023/10/01 08:07:30;;;;;;;35.35;11.35;;;13.10;99.90;;;;;;5053721;28;20052;-69
2023/10/01 08:09:59;;;;;;;25.25;10.68;;;13.30;99.90;;;;;;5054900;28;20029;-68
2023/10/01 08:12:56;;;;;;;26.08;10.93;;;13.50;99.90;;;;;;5054336;28;20032;-68
2023/10/01 08:15:29;;;;;;;26.42;10.13;;;13.70;99.90;;;;;;5053266;28;20489;-69
2023/10/01 08:17:55;;;;;;;26.33;10.25;;;13.80;99.90;;;;;;5054579;28;20045;-68
2023/10/01 08:20:21;;;;;;;27.45;10.30;;;14.00;99.90;;;;;;5053718;28;20179;-69
2023/10/01 08:25:32;;;;;;;29.73;10.50;;;14.30;99.90;;;;;;5054739;28;20467;-69
2023/10/01 08:28:43;;;;;;;26.65;10.15;;;14.50;99.90;;;;;;5054654;28;20413;-68
2023/10/01 08:31:20;;;;;;;27.27;9.93;;;14.70;99.90;;;;;;5051208;28;20025;-69
2023/10/01 08:33:51;;;;;;;29.65;10.50;;;15.00;99.90;;;;;;5054380;28;20036;-69
2023/10/01 08:36:17;;;;;;;25.20;11.27;;;15.20;99.90;;;;;;5053379;28;20064;-68
2023/10/01 08:39:19;;;;;;;27.63;9.95;;;15.30;99.90;;;;;;5054625;28;20449;-69
2023/10/01 08:41:50;;;;;;;28.23;10.13;;;15.40;99.90;;;;;;5054220;28;20470;-68
2023/10/01 08:44:20;;;;;;;32.85;10.63;;;15.60;99.90;;;;;;5053862;28;20078;-68
2023/10/01 08:46:45;;;;;;;24.67;9.43;;;15.70;99.90;;;;;;5054460;28;20041;-69
2023/10/01 08:49:30;;;;;;;24.58;10.05;;;15.80;99.90;;;;;;5068837;28;20043;-69
2023/10/01 08:54:44;;;;;;;25.42;9.98;;;16.00;99.90;;;;;;5034596;28;20033;-69
2023/10/01 08:57:17;;;;;;;27.30;9.68;;;16.20;99.90;;;;;;5033598;28;20029;-69
2023/10/01 08:59:44;;;;;;;24.92;9.98;;;16.40;99.90;;;;;;5034471;28;20135;-68
2023/10/01 09:02:19;;;;;;;22.77;9.48;;;16.70;99.90;;;;;;5033535;28;20034;-69
2023/10/01 09:04:47;;;;;;;24.15;9.75;;;16.80;99.90;;;;;;5051471;28;20563;-69
2023/10/01 09:07:19;;;;;;;28.38;9.93;;;16.90;99.90;;;;;;5052221;28;20412;-69
2023/10/01 09:10:08;;;;;;;30.30;10.07;;;17.00;99.90;;;;;;5051972;28;20037;-69
2023/10/01 09:12:46;;;;;;;24.30;9.15;;;17.00;99.90;;;;;;5045385;28;20040;-68
2023/10/01 09:15:29;;;;;;;24.40;9.65;;;17.20;99.90;;;;;;5032989;28;20061;-69
2023/10/01 09:17:58;;;;;;;22.73;10.00;;;17.40;99.90;;;;;;5049178;28;20043;-69
2023/10/01 09:21:03;;;;;;;25.65;9.80;;;17.50;99.90;;;;;;5065440;28;20032;-68
2023/10/01 09:23:59;;;;;;;24.20;9.48;;;17.40;99.90;;;;;;5040592;28;20087;-69
2023/10/01 09:26:40;;;;;;;26.08;8.98;;;17.60;99.90;;;;;;5045938;28;20071;-70
2023/10/01 09:29:20;;;;;;;29.27;10.07;;;17.90;99.90;;;;;;5050308;28;20028;-72
2023/10/01 09:31:52;;;;;;;25.58;9.32;;;18.10;99.90;;;;;;5049431;28;20056;-66
2023/10/01 09:34:34;;;;;;;26.80;9.15;;;18.20;99.90;;;;;;5048029;28;20420;-69
2023/10/01 09:37:12;;;;;;;23.95;8.77;;;18.00;99.90;;;;;;5048223;28;20053;-67
2023/10/01 09:39:43;;;;;;;22.23;9.40;;;18.20;99.90;;;;;;5044834;28;20040;-68
2023/10/01 09:42:25;;;;;;;22.90;8.98;;;18.40;99.90;;;;;;5043816;28;20681;-68
2023/10/01 09:44:53;;;;;;;19.80;8.93;;;18.50;99.90;;;;;;5049529;28;20120;-68
2023/10/01 09:47:24;;;;;;;24.60;8.95;;;18.50;99.90;;;;;;5049324;28;20036;-68
2023/10/01 09:49:54;;;;;;;20.90;8.27;;;18.70;99.90;;;;;;5037230;28;20119;-67
2023/10/01 09:52:30;;;;;;;26.33;8.68;;;18.80;99.90;;;;;;5049018;28;20091;-69
2023/10/01 09:55:02;;;;;;;23.50;9.50;;;18.70;99.90;;;;;;5045399;28;20040;-68
2023/10/01 09:57:34;;;;;;;19.58;8.55;;;18.70;99.90;;;;;;5047150;28;20043;-69
2023/10/01 10:00:14;;;;;;;23.48;8.40;;;18.90;99.90;;;;;;5047925;28;20374;-68
2023/10/01 10:02:51;;;;;;;29.58;8.13;;;19.20;99.90;;;;;;5045962;28;20044;-67
2023/10/01 10:05:24;;;;;;;19.27;7.70;;;19.40;99.90;;;;;;5048796;28;20381;-68
2023/10/01 10:07:52;;;;;;;19.95;7.70;;;19.50;99.90;;;;;;5047104;28;20036;-68
2023/10/01 10:10:24;;;;;;;20.00;7.03;;;19.70;99.90;;;;;;5045533;28;20037;-68
2023/10/01 10:12:53;;;;;;;18.92;7.00;;;19.80;99.90;;;;;;5045671;28;20037;-68
2023/10/01 10:15:55;;;;;;;18.65;7.25;;;19.90;99.90;;;;;;5045553;28;20354;-67
2023/10/01 10:18:23;;;;;;;21.10;6.82;;;19.90;99.90;;;;;;5044035;28;20056;-67
2023/10/01 10:21:05;;;;;;;18.35;7.85;;;20.00;99.90;;;;;;5049434;28;20041;-68
2023/10/01 10:23:52;;;;;;;23.40;7.82;;;20.00;99.90;;;;;;5047208;28;20048;-67
2023/10/01 10:26:56;;;;;;;20.33;7.45;;;19.90;99.90;;;;;;5048701;28;20033;-68
2023/10/01 10:29:22;;;;;;;18.25;7.55;;;19.70;99.90;;;;;;5040082;28;20048;-67
2023/10/01 10:32:09;;;;;;;19.00;7.07;;;20.10;99.90;;;;;;5049075;28;20033;-68
2023/10/01 10:34:36;;;;;;;17.73;7.13;;;20.30;99.90;;;;;;5047815;28;20032;-69
2023/10/01 10:37:06;;;;;;;17.67;7.18;;;20.50;99.90;;;;;;5048776;28;20481;-69
2023/10/01 10:39:50;;;;;;;20.10;7.32;;;20.80;99.90;;;;;;5044739;28;20029;-68
2023/10/01 10:42:29;;;;;;;18.27;7.05;;;20.90;99.90;;;;;;5047450;28;20508;-68
2023/10/01 10:45:23;;;;;;;20.30;7.78;;;21.10;99.90;;;;;;5038506;28;20379;-68
2023/10/01 10:48:03;;;;;;;22.48;7.72;;;21.20;99.90;;;;;;5034639;28;20473;-68
2023/10/01 10:50:53;;;;;;;22.27;6.70;;;21.20;99.90;;;;;;5046685;28;20032;-67
2023/10/01 10:53:20;;;;;;;18.00;7.32;;;21.10;99.90;;;;;;5042521;28;20119;-68
2023/10/01 10:56:04;;;;;;;21.50;7.13;;;21.00;99.90;;;;;;5048424;28;20121;-68
2023/10/01 10:58:38;;;;;;;21.48;7.88;;;21.00;99.90;;;;;;5046392;28;20626;-68
2023/10/01 11:01:18;;;;;;;18.70;8.02;;;20.90;99.90;;;;;;5048021;28;20044;-67
2023/10/01 11:03:54;;;;;;;20.33;7.70;;;21.00;99.90;;;;;;5041604;28;20032;-67
2023/10/01 11:06:39;;;;;;;19.60;7.13;;;21.00;99.90;;;;;;5046976;28;20063;-67
2023/10/01 11:09:22;;;;;;;23.30;8.45;;;21.20;99.90;;;;;;5046659;28;20079;-67
2023/10/01 11:11:49;;;;;;;29.17;8.40;;;21.50;99.90;;;;;;5047461;28;20024;-68
2023/10/01 11:14:16;;;;;;;22.48;7.93;;;21.60;99.90;;;;;;5046335;28;20540;-67
2023/10/01 11:16:46;;;;;;;18.83;7.78;;;22.00;99.90;;;;;;5046566;28;20041;-66
2023/10/01 11:19:14;;;;;;;24.20;8.48;;;22.30;99.90;;;;;;5046710;28;20136;-66
2023/10/01 11:21:44;;;;;;;22.73;8.30;;;22.40;99.90;;;;;;5047791;28;20550;-67
2023/10/01 11:24:13;;;;;;;28.90;8.32;;;22.40;99.90;;;;;;5044051;28;20588;-67
2023/10/01 11:27:24;;;;;;;23.58;8.38;;;22.70;99.90;;;;;;5047807;28;20041;-66
2023/10/01 11:30:13;;;;;;;19.02;7.82;;;22.90;99.90;;;;;;5048123;28;20033;-67
2023/10/01 11:35:35;;;;;;;21.33;8.10;;;22.90;99.90;;;;;;5046890;28;20925;-67
2023/10/01 11:38:19;;;;;;;20.85;8.23;;;22.70;99.90;;;;;;5046554;28;20084;-66
2023/10/01 11:43:36;;;;;;;23.75;8.32;;;23.00;99.90;;;;;;5039901;28;20032;-68
2023/10/01 11:46:25;;;;;;;25.42;8.82;;;23.40;99.90;;;;;;5043353;28;20025;-68
2023/10/01 11:49:14;;;;;;;24.30;9.02;;;23.70;99.90;;;;;;5039904;28;20108;-68
2023/10/01 11:52:01;;;;;;;27.73;7.75;;;23.70;99.90;;;;;;5047225;28;20037;-67
2023/10/01 11:54:52;;;;;;;20.95;8.05;;;23.70;99.90;;;;;;5030319;28;20029;-68
2023/10/01 11:57:23;;;;;;;23.60;7.97;;;23.20;99.90;;;;;;5042217;28;20105;-68
2023/10/01 11:59:55;;;;;;;19.95;8.27;;;23.20;99.90;;;;;;5047708;28;20087;-68
2023/10/01 12:02:32;;;;;;;21.23;8.90;;;23.30;99.90;;;;;;5032692;28;20038;-68
2023/10/01 12:05:00;;;;;;;26.50;8.32;;;23.00;99.90;;;;;;5037856;28;20041;-69
2023/10/01 12:07:39;;;;;;;18.73;8.23;;;23.50;99.90;;;;;;5043961;28;20116;-69
2023/10/01 12:10:07;;;;;;;18.45;7.30;;;23.50;97.50;;;;;;5045448;28;20614;-66
2023/10/01 12:12:37;;;;;;;19.38;7.57;;;23.30;98.10;;;;;;5043545;28;20041;-68
2023/10/01 12:17:50;;;;;;;21.08;7.80;;;23.40;97.30;;;;;;5044904;28;20080;-69
2023/10/01 12:20:22;;;;;;;18.38;7.82;;;23.60;97.80;;;;;;5044301;28;20076;-68
2023/10/01 12:23:10;;;;;;;22.40;7.97;;;23.70;96.40;;;;;;5044171;28;20028;-67
2023/10/01 12:28:29;;;;;;;17.60;7.63;;;24.00;97.30;;;;;;5044356;28;20073;-66
2023/10/01 12:31:00;;;;;;;18.35;8.00;;;23.70;98.40;;;;;;5045740;28;20033;-67
2023/10/01 12:33:40;;;;;;;17.67;7.15;;;24.00;97.80;;;;;;5042708;28;20036;-67
2023/10/01 12:44:25;;;;;;;23.40;7.35;;;24.50;94.30;;;;;;5044685;28;20436;-68
2023/10/01 12:47:02;;;;;;;19.00;7.22;;;24.30;92.50;;;;;;5048032;28;20477;-68
2023/10/01 12:49:34;;;;;;;18.85;7.43;;;24.00;93.60;;;;;;5045441;28;20029;-68
2023/10/01 12:52:04;;;;;;;20.67;6.88;;;24.10;92.60;;;;;;5050850;28;20060;-67
2023/10/01 12:54:29;;;;;;;17.45;7.22;;;24.10;94.80;;;;;;5048133;28;20033;-67
2023/10/01 12:59:40;;;;;;;18.02;5.88;;;23.90;90.90;;;;;;5035447;28;20032;-67
2023/10/01 13:03:16;;;;;;;14.90;5.90;;;23.70;93.20;;;;;;5050352;28;20075;-67
2023/10/01 13:05:27;;;;;;;14.32;6.10;;;23.80;91.00;;;;;;5039779;28;20444;-68
2023/10/01 13:07:56;;;;;;;14.30;5.18;;;23.90;90.80;;;;;;5047205;28;20029;-67
2023/10/01 13:10:55;;;;;;;15.93;6.00;;;24.00;80.00;;;;;;5047065;28;20029;-67
2023/10/01 13:13:19;;;;;;;11.88;5.28;;;24.20;80.80;;;;;;5044418;28;20049;-68
2023/10/01 13:15:51;;;;;;;14.15;5.70;;;24.20;85.90;;;;;;5046938;28;20803;-68
2023/10/01 13:18:22;;;;;;;14.88;5.53;;;24.70;83.40;;;;;;5042529;28;20465;-68
2023/10/01 13:20:59;;;;;;;13.38;5.65;;;24.60;83.80;;;;;;5048416;28;20040;-68
2023/10/01 13:23:28;;;;;;;14.00;5.93;;;24.50;89.90;;;;;;5045420;28;20037;-68
2023/10/01 13:26:06;;;;;;;15.82;7.10;;;24.70;89.90;;;;;;5046801;28;20362;-68
2023/10/01 13:28:56;;;;;;;16.80;5.80;;;24.50;90.70;;;;;;5042463;28;20033;-68
2023/10/01 13:34:32;;;;;;;14.35;5.80;;;25.00;84.40;;;;;;5044449;28;20037;-68
2023/10/01 14:09:47;;;;;;;12.70;5.18;;;26.00;80.00;;;;;;5036346;28;20110;-71
2023/10/01 14:12:14;;;;;;;10.65;4.72;;;26.10;77.10;;;;;;5046529;28;20064;-70
2023/10/01 14:14:43;;;;;;;10.60;5.03;;;25.80;74.00;;;;;;5045980;28;20115;-69
2023/10/01 14:17:13;;;;;;;12.50;5.13;;;26.00;77.00;;;;;;5049077;28;20524;-71
2023/10/01 14:19:41;;;;;;;13.68;4.97;;;26.10;76.70;;;;;;5045812;28;20033;-69
2023/10/01 14:22:18;;;;;;;12.35;5.18;;;26.30;74.50;;;;;;5045537;28;20024;-71
2023/10/01 14:24:44;;;;;;;13.48;6.05;;;26.50;72.60;;;;;;5045515;28;20028;-70
2023/10/01 14:27:24;;;;;;;15.18;5.32;;;26.40;73.90;;;;;;5046507;28;20040;-70
2023/10/01 14:30:01;;;;;;;16.05;6.00;;;26.20;75.00;;;;;;5043489;28;20040;-70
2023/10/01 14:32:35;;;;;;;11.35;5.38;;;25.90;75.50;;;;;;5040487;28;20043;-70
2023/10/01 14:35:14;;;;;;;11.88;5.38;;;25.80;78.00;;;;;;5047146;28;20041;-70
2023/10/01 14:37:54;;;;;;;12.55;5.53;;;25.90;73.50;;;;;;5043320;28;20059;-70
2023/10/01 14:40:21;;;;;;;12.18;5.13;;;25.80;78.00;;;;;;5046563;28;20139;-70